createdAt,value
2017-02-22T00:00:01.681Z,22.02
2017-02-22T00:01:16.099Z,21.94
2017-02-22T00:02:30.465Z,21.96
2017-02-22T00:03:44.902Z,21.94
2017-02-22T00:04:59.336Z,21.94
2017-02-22T00:06:13.755Z,21.84
2017-02-22T00:07:27.549Z,21.8
2017-02-22T00:08:41.949Z,21.77
2017-02-22T00:09:56.324Z,21.88
2017-02-22T00:11:10.717Z,21.83
2017-02-22T00:12:25.113Z,21.83
2017-02-22T00:13:38.864Z,21.86
2017-02-22T00:14:53.293Z,21.84
2017-02-22T00:16:07.700Z,21.9
2017-02-22T00:17:20.212Z,21.84
2017-02-22T00:18:34.611Z,21.84
2017-02-22T00:19:48.390Z,21.92
2017-02-22T00:21:02.791Z,21.9
2017-02-22T00:22:17.164Z,21.88
2017-02-22T00:23:31.568Z,21.9
2017-02-22T00:24:45.293Z,21.83
2017-02-22T00:25:59.693Z,21.84
2017-02-22T00:27:14.120Z,21.92
2017-02-22T00:28:28.474Z,21.84
2017-02-22T00:29:42.895Z,21.83
2017-02-22T00:30:56.639Z,21.82
2017-02-22T00:32:10.379Z,21.79
2017-02-22T00:33:24.159Z,21.79
2017-02-22T00:34:38.562Z,21.83
2017-02-22T00:35:52.998Z,21.8
2017-02-22T00:37:07.498Z,21.77
2017-02-22T00:38:21.999Z,21.72
2017-02-22T00:39:36.438Z,21.77
2017-02-22T00:40:50.889Z,21.71
2017-02-22T00:42:04.008Z,21.69
2017-02-22T00:43:18.418Z,21.68
2017-02-22T00:44:32.795Z,21.77
2017-02-22T00:45:47.214Z,21.79
2017-02-22T00:47:01.567Z,21.8
2017-02-22T00:48:15.291Z,21.71
2017-02-22T00:49:29.715Z,21.71
2017-02-22T00:50:44.090Z,21.77
2017-02-22T00:51:58.521Z,21.79
2017-02-22T00:53:12.982Z,21.72
2017-02-22T00:54:27.427Z,21.72
2017-02-22T00:55:40.570Z,21.8
2017-02-22T00:56:54.300Z,21.92
2017-02-22T00:58:08.700Z,21.9
2017-02-22T00:59:21.807Z,21.92
2017-02-22T01:00:36.223Z,21.98
2017-02-22T01:01:50.615Z,21.96
2017-02-22T01:03:05.016Z,21.99
2017-02-22T01:04:18.814Z,22.03
2017-02-22T01:05:33.245Z,21.94
2017-02-22T01:06:47.014Z,21.9
2017-02-22T01:08:01.439Z,21.9
2017-02-22T01:09:15.185Z,21.92
2017-02-22T01:10:28.957Z,21.82
2017-02-22T01:11:43.398Z,21.84
2017-02-22T01:12:57.145Z,21.79
2017-02-22T01:14:10.913Z,21.92
2017-02-22T01:15:25.339Z,21.91
2017-02-22T01:16:39.713Z,21.91
2017-02-22T01:17:54.098Z,21.91
2017-02-22T01:19:08.467Z,21.92
2017-02-22T01:20:22.928Z,21.92
2017-02-22T01:21:36.743Z,21.92
2017-02-22T01:22:51.202Z,21.84
2017-02-22T01:24:05.592Z,21.84
2017-02-22T01:25:19.339Z,21.71
2017-02-22T01:26:33.730Z,21.75
2017-02-22T01:27:48.134Z,21.69
2017-02-22T01:29:02.527Z,21.83
2017-02-22T01:30:16.906Z,21.86
2017-02-22T01:31:31.283Z,21.86
2017-02-22T01:32:45.677Z,21.72
2017-02-22T01:33:59.470Z,21.74
2017-02-22T01:35:13.892Z,21.8
2017-02-22T01:36:28.313Z,21.8
2017-02-22T01:37:42.745Z,21.72
2017-02-22T01:38:57.176Z,21.69
2017-02-22T01:40:11.589Z,21.68
2017-02-22T01:41:25.432Z,21.59
2017-02-22T01:42:39.805Z,21.67
2017-02-22T01:43:53.545Z,21.61
2017-02-22T01:45:07.928Z,21.74
2017-02-22T01:46:21.673Z,21.72
2017-02-22T01:47:36.079Z,21.72
2017-02-22T01:48:50.436Z,21.72
2017-02-22T01:50:04.801Z,21.67
2017-02-22T01:51:18.551Z,21.69
2017-02-22T01:52:32.277Z,21.65
2017-02-22T01:53:46.033Z,21.69
2017-02-22T01:55:00.424Z,21.79
2017-02-22T01:56:14.186Z,21.72
2017-02-22T01:57:27.935Z,21.65
2017-02-22T01:58:42.312Z,21.75
2017-02-22T01:59:56.682Z,21.71
2017-02-22T02:01:10.430Z,21.67
2017-02-22T02:02:24.828Z,21.67
2017-02-22T02:03:39.192Z,21.71
2017-02-22T02:04:53.631Z,21.68
2017-02-22T02:06:07.973Z,21.56
2017-02-22T02:07:21.763Z,21.69
2017-02-22T02:08:36.176Z,21.68
2017-02-22T02:09:50.580Z,21.58
2017-02-22T02:11:04.994Z,21.62
2017-02-22T02:12:19.488Z,21.56
2017-02-22T02:13:33.253Z,21.59
2017-02-22T02:14:47.644Z,21.62
2017-02-22T02:16:01.394Z,21.59
2017-02-22T02:17:15.780Z,21.58
2017-02-22T02:18:30.194Z,21.53
2017-02-22T02:19:44.567Z,21.65
2017-02-22T02:20:58.949Z,21.58
2017-02-22T02:22:13.432Z,21.61
2017-02-22T02:23:26.501Z,21.67
2017-02-22T02:24:40.897Z,21.54
2017-02-22T02:25:55.289Z,21.54
2017-02-22T02:27:09.690Z,21.56
2017-02-22T02:28:24.088Z,21.53
2017-02-22T02:29:38.493Z,21.58
2017-02-22T02:30:52.297Z,21.53
2017-02-22T02:32:06.684Z,21.53
2017-02-22T02:33:21.120Z,21.53
2017-02-22T02:34:35.495Z,21.53
2017-02-22T02:35:49.255Z,21.54
2017-02-22T02:37:03.648Z,21.47
2017-02-22T02:38:17.425Z,21.56
2017-02-22T02:39:31.831Z,21.49
2017-02-22T02:40:46.222Z,21.5
2017-02-22T02:41:59.326Z,21.49
2017-02-22T02:43:13.091Z,21.49
2017-02-22T02:44:26.858Z,21.47
2017-02-22T02:45:41.268Z,21.46
2017-02-22T02:46:55.681Z,21.38
2017-02-22T02:48:10.117Z,21.42
2017-02-22T02:49:24.465Z,21.38
2017-02-22T02:50:38.861Z,21.46
2017-02-22T02:51:53.271Z,21.47
2017-02-22T02:53:07.101Z,21.47
2017-02-22T02:54:21.523Z,21.38
2017-02-22T02:55:35.960Z,21.35
2017-02-22T02:56:50.316Z,21.4
2017-02-22T02:58:04.700Z,21.35
2017-02-22T02:59:19.065Z,21.38
2017-02-22T03:00:33.480Z,21.43
2017-02-22T03:01:47.895Z,21.46
2017-02-22T03:03:02.433Z,21.47
2017-02-22T03:04:15.569Z,21.47
2017-02-22T03:05:29.317Z,21.49
2017-02-22T03:06:43.715Z,21.43
2017-02-22T03:07:57.442Z,21.46
2017-02-22T03:09:11.202Z,21.46
2017-02-22T03:10:25.613Z,21.52
2017-02-22T03:11:39.956Z,21.47
2017-02-22T03:12:53.753Z,21.47
2017-02-22T03:14:08.188Z,21.53
2017-02-22T03:15:21.289Z,21.46
2017-02-22T03:16:35.696Z,21.44
2017-02-22T03:17:49.434Z,21.4
2017-02-22T03:19:02.547Z,21.37
2017-02-22T03:20:16.297Z,21.35
2017-02-22T03:21:30.678Z,21.4
2017-02-22T03:22:45.076Z,21.38
2017-02-22T03:23:58.815Z,21.38
2017-02-22T03:25:12.563Z,21.35
2017-02-22T03:26:26.936Z,21.32
2017-02-22T03:27:41.340Z,21.31
2017-02-22T03:28:55.722Z,21.25
2017-02-22T03:30:10.116Z,21.22
2017-02-22T03:31:24.510Z,21.28
2017-02-22T03:32:38.904Z,21.29
2017-02-22T03:33:53.338Z,21.28
2017-02-22T03:35:07.087Z,21.21
2017-02-22T03:36:20.794Z,21.32
2017-02-22T03:37:35.182Z,21.34
2017-02-22T03:38:49.577Z,21.29
2017-02-22T03:40:03.345Z,21.35
2017-02-22T03:41:17.719Z,21.4
2017-02-22T03:42:32.167Z,21.4
2017-02-22T03:43:46.633Z,21.42
2017-02-22T03:45:00.996Z,21.37
2017-02-22T03:46:15.384Z,21.32
2017-02-22T03:47:29.785Z,21.34
2017-02-22T03:48:44.196Z,21.29
2017-02-22T03:49:58.559Z,21.38
2017-02-22T03:51:12.980Z,21.4
2017-02-22T03:52:26.745Z,21.38
2017-02-22T03:53:41.154Z,21.34
2017-02-22T03:54:55.579Z,21.4
2017-02-22T03:56:10.035Z,21.35
2017-02-22T03:57:24.453Z,21.42
2017-02-22T03:58:38.863Z,21.38
2017-02-22T03:59:52.609Z,21.43
2017-02-22T04:01:06.325Z,21.43
2017-02-22T04:02:20.742Z,21.34
2017-02-22T04:03:35.129Z,21.32
2017-02-22T04:04:49.512Z,21.37
2017-02-22T04:06:03.892Z,21.38
2017-02-22T04:07:17.017Z,21.38
2017-02-22T04:08:31.426Z,21.35
2017-02-22T04:09:45.819Z,21.38
2017-02-22T04:11:00.225Z,21.31
2017-02-22T04:12:14.627Z,21.32
2017-02-22T04:13:29.016Z,21.31
2017-02-22T04:14:43.461Z,21.35
2017-02-22T04:15:57.842Z,21.29
2017-02-22T04:17:11.627Z,21.42
2017-02-22T04:18:25.449Z,21.4
2017-02-22T04:19:39.835Z,21.27
2017-02-22T04:21:03.965Z,21.38
2017-02-22T04:22:22.517Z,21.24
2017-02-22T04:23:36.243Z,21.21
2017-02-22T04:24:50.602Z,21.28
2017-02-22T04:26:05.049Z,21.27
2017-02-22T04:27:19.428Z,21.35
2017-02-22T04:28:33.848Z,21.43
2017-02-22T04:29:48.275Z,21.42
2017-02-22T04:31:02.679Z,21.49
2017-02-22T04:32:17.102Z,21.44
2017-02-22T04:33:31.504Z,21.46
2017-02-22T04:34:45.861Z,21.52
2017-02-22T04:36:00.264Z,21.47
2017-02-22T04:37:13.428Z,21.5
2017-02-22T04:38:27.206Z,21.38
2017-02-22T04:39:41.605Z,21.44
2017-02-22T04:40:55.991Z,21.22
2017-02-22T04:42:10.417Z,21.28
2017-02-22T04:43:24.191Z,21.29
2017-02-22T04:44:38.585Z,21.31
2017-02-22T04:45:52.943Z,21.31
2017-02-22T04:47:07.386Z,21.27
2017-02-22T04:48:21.148Z,21.24
2017-02-22T04:49:35.566Z,21.31
2017-02-22T04:50:49.299Z,21.31
2017-02-22T04:52:03.663Z,21.25
2017-02-22T04:53:17.452Z,21.28
2017-02-22T04:54:31.827Z,21.24
2017-02-22T04:55:46.244Z,21.24
2017-02-22T04:56:59.986Z,21.27
2017-02-22T04:58:13.744Z,21.27
2017-02-22T04:59:28.124Z,21.29
2017-02-22T05:00:42.549Z,21.25
2017-02-22T05:01:56.985Z,21.27
2017-02-22T05:03:10.737Z,21.16
2017-02-22T05:04:24.494Z,21.19
2017-02-22T05:05:38.921Z,21.34
2017-02-22T05:06:53.350Z,21.29
2017-02-22T05:08:07.159Z,21.28
2017-02-22T05:09:21.591Z,21.25
2017-02-22T05:10:35.999Z,21.25
2017-02-22T05:11:50.380Z,21.28
2017-02-22T05:13:04.813Z,21.24
2017-02-22T05:14:18.593Z,21.29
2017-02-22T05:15:32.999Z,21.28
2017-02-22T05:16:47.381Z,21.31
2017-02-22T05:18:01.821Z,21.31
2017-02-22T05:19:16.211Z,21.35
2017-02-22T05:20:29.975Z,21.37
2017-02-22T05:21:44.400Z,21.38
2017-02-22T05:22:56.892Z,21.34
2017-02-22T05:24:11.319Z,21.21
2017-02-22T05:25:25.717Z,21.31
2017-02-22T05:26:40.155Z,21.25
2017-02-22T05:27:53.936Z,21.21
2017-02-22T05:29:08.305Z,21.22
2017-02-22T05:30:22.732Z,21.12
2017-02-22T05:31:37.106Z,21.12
2017-02-22T05:32:51.481Z,21.1
2017-02-22T05:34:05.214Z,21.12
2017-02-22T05:35:18.973Z,21.1
2017-02-22T05:36:33.381Z,21.07
2017-02-22T05:37:47.731Z,21.1
2017-02-22T05:39:02.182Z,21.03
2017-02-22T05:40:16.584Z,21.07
2017-02-22T05:41:30.377Z,21.04
2017-02-22T05:42:44.746Z,21.09
2017-02-22T05:43:59.143Z,21.13
2017-02-22T05:45:13.515Z,21.13
2017-02-22T05:46:27.326Z,21.19
2017-02-22T05:47:41.744Z,21.17
2017-02-22T05:48:56.152Z,21.13
2017-02-22T05:50:10.558Z,21.12
2017-02-22T05:51:24.976Z,21.09
2017-02-22T05:52:38.734Z,21.07
2017-02-22T05:53:52.480Z,21.14
2017-02-22T05:55:06.908Z,21.16
2017-02-22T05:56:21.295Z,21.17
2017-02-22T05:57:35.689Z,21.13
2017-02-22T05:58:50.078Z,21.03
2017-02-22T06:00:04.440Z,21.1
2017-02-22T06:01:18.256Z,21.07
2017-02-22T06:02:32.666Z,21.07
2017-02-22T06:03:47.059Z,21.12
2017-02-22T06:05:01.497Z,21.12
2017-02-22T06:06:14.633Z,21.04
2017-02-22T06:07:29.064Z,21.17
2017-02-22T06:08:42.807Z,21.12
2017-02-22T06:09:57.165Z,21.13
2017-02-22T06:11:11.545Z,21.27
2017-02-22T06:12:25.975Z,21.22
2017-02-22T06:13:40.342Z,21.27
2017-02-22T06:14:54.746Z,21.19
2017-02-22T06:16:08.515Z,21.27
2017-02-22T06:17:22.880Z,21.21
2017-02-22T06:18:36.004Z,21.12
2017-02-22T06:19:50.382Z,21.1
2017-02-22T06:21:04.778Z,21.22
2017-02-22T06:22:17.899Z,21.16
2017-02-22T06:23:32.320Z,21.28
2017-02-22T06:24:46.718Z,21.22
2017-02-22T06:26:01.113Z,21.21
2017-02-22T06:27:14.902Z,21.1
2017-02-22T06:28:29.288Z,21.13
2017-02-22T06:29:43.717Z,21.17
2017-02-22T06:30:58.134Z,21.14
2017-02-22T06:32:12.509Z,21.1
2017-02-22T06:33:26.902Z,21.14
2017-02-22T06:34:41.308Z,21.17
2017-02-22T06:35:55.740Z,21.12
2017-02-22T06:37:09.545Z,21.16
2017-02-22T06:38:23.961Z,21.13
2017-02-22T06:39:37.711Z,21.1
2017-02-22T06:40:52.143Z,21.09
2017-02-22T06:42:05.892Z,21.12
2017-02-22T06:43:20.276Z,21.16
2017-02-22T06:44:34.668Z,21.1
2017-02-22T06:45:49.061Z,21.1
2017-02-22T06:47:03.467Z,21.13
2017-02-22T06:48:17.899Z,21.04
2017-02-22T06:49:32.279Z,21.1
2017-02-22T06:50:46.674Z,20.98
2017-02-22T06:52:00.419Z,20.98
2017-02-22T06:53:14.195Z,20.97
2017-02-22T06:54:27.949Z,21.04
2017-02-22T06:55:41.710Z,20.98
2017-02-22T06:56:56.132Z,21.01
2017-02-22T06:58:10.512Z,20.99
2017-02-22T06:59:24.950Z,20.99
2017-02-22T07:00:38.691Z,20.97
2017-02-22T07:01:52.481Z,21.04
2017-02-22T07:03:06.861Z,21.03
2017-02-22T07:04:20.615Z,21.06
2017-02-22T07:05:35.036Z,21.07
2017-02-22T07:06:49.481Z,21.07
2017-02-22T07:08:03.888Z,21.06
2017-02-22T07:09:18.289Z,21.07
2017-02-22T07:10:32.664Z,21.09
2017-02-22T07:11:46.566Z,21.01
2017-02-22T07:13:00.352Z,21.07
2017-02-22T07:14:14.797Z,20.99
2017-02-22T07:15:29.170Z,20.91
2017-02-22T07:16:42.883Z,20.98
2017-02-22T07:17:57.275Z,20.95
2017-02-22T07:19:11.953Z,20.94
2017-02-22T07:20:26.354Z,20.91
2017-02-22T07:21:40.772Z,20.89
2017-02-22T07:22:55.548Z,20.82
2017-02-22T07:24:09.946Z,20.8
2017-02-22T07:25:23.662Z,20.82
2017-02-22T07:26:38.035Z,20.84
2017-02-22T07:27:52.434Z,20.88
2017-02-22T07:29:06.929Z,20.79
2017-02-22T07:30:20.742Z,20.77
2017-02-22T07:31:35.192Z,20.8
2017-02-22T07:32:49.595Z,20.88
2017-02-22T07:34:04.005Z,20.89
2017-02-22T07:35:17.771Z,20.95
2017-02-22T07:36:32.180Z,20.91
2017-02-22T07:37:46.596Z,20.94
2017-02-22T07:39:00.978Z,20.98
2017-02-22T07:40:15.413Z,20.99
2017-02-22T07:41:29.799Z,20.97
2017-02-22T07:42:44.195Z,21.03
2017-02-22T07:43:57.911Z,21.01
2017-02-22T07:45:12.321Z,20.99
2017-02-22T07:46:26.760Z,20.98
2017-02-22T07:47:41.146Z,21.14
2017-02-22T07:48:55.530Z,21.13
2017-02-22T07:50:10.025Z,21.12
2017-02-22T07:51:24.448Z,21.09
2017-02-22T07:52:38.838Z,21.1
2017-02-22T07:53:52.590Z,21.09
2017-02-22T07:55:06.987Z,21.09
2017-02-22T07:56:21.363Z,21.07
2017-02-22T07:57:35.766Z,21.06
2017-02-22T07:58:50.155Z,21.04
2017-02-22T08:00:04.538Z,20.98
2017-02-22T08:01:18.263Z,20.99
2017-02-22T08:02:32.664Z,20.94
2017-02-22T08:03:46.460Z,20.89
2017-02-22T08:05:00.223Z,20.94
2017-02-22T08:06:14.596Z,20.91
2017-02-22T08:07:29.025Z,20.92
2017-02-22T08:08:43.429Z,20.97
2017-02-22T08:09:57.218Z,20.91
2017-02-22T08:11:11.586Z,20.84
2017-02-22T08:12:26.002Z,20.82
2017-02-22T08:13:40.437Z,20.87
2017-02-22T08:14:54.842Z,20.79
2017-02-22T08:16:08.594Z,20.77
2017-02-22T08:17:22.359Z,20.8
2017-02-22T08:18:35.467Z,20.74
2017-02-22T08:19:49.215Z,20.8
2017-02-22T08:21:02.992Z,20.76
2017-02-22T08:22:17.423Z,20.76
2017-02-22T08:23:31.864Z,20.8
2017-02-22T08:24:46.259Z,20.73
2017-02-22T08:26:00.693Z,20.66
2017-02-22T08:27:15.048Z,20.66
2017-02-22T08:28:29.430Z,20.67
2017-02-22T08:29:43.226Z,20.67
2017-02-22T08:30:56.980Z,20.67
2017-02-22T08:32:10.790Z,20.61
2017-02-22T08:33:25.182Z,20.59
2017-02-22T08:34:38.919Z,20.64
2017-02-22T08:35:53.307Z,20.67
2017-02-22T08:37:07.678Z,20.59
2017-02-22T08:38:22.095Z,20.67
2017-02-22T08:39:35.886Z,20.62
2017-02-22T08:40:50.273Z,20.61
2017-02-22T08:42:04.650Z,20.64
2017-02-22T08:43:18.446Z,20.58
2017-02-22T08:44:32.824Z,20.76
2017-02-22T08:45:46.565Z,20.73
2017-02-22T08:47:00.343Z,20.74
2017-02-22T08:48:14.761Z,20.76
2017-02-22T08:49:29.178Z,20.74
2017-02-22T08:50:43.553Z,20.73
2017-02-22T08:51:57.974Z,20.76
2017-02-22T08:53:12.380Z,20.67
2017-02-22T08:54:26.125Z,20.73
2017-02-22T08:55:40.593Z,20.74
2017-02-22T08:56:54.983Z,20.69
2017-02-22T08:58:08.750Z,20.7
2017-02-22T08:59:23.167Z,20.69
2017-02-22T09:00:37.540Z,20.67
2017-02-22T09:01:50.700Z,20.62
2017-02-22T09:03:04.424Z,20.67
2017-02-22T09:04:18.228Z,20.62
2017-02-22T09:05:32.002Z,20.73
2017-02-22T09:06:45.770Z,20.74
2017-02-22T09:07:59.840Z,20.69
2017-02-22T09:09:14.312Z,20.77
2017-02-22T09:10:28.690Z,20.77
2017-02-22T09:11:43.075Z,20.77
2017-02-22T09:12:56.828Z,20.87
2017-02-22T09:14:11.217Z,20.91
2017-02-22T09:15:24.919Z,20.98
2017-02-22T09:16:39.367Z,21.03
2017-02-22T09:17:53.102Z,21.03
2017-02-22T09:19:07.532Z,21.03
2017-02-22T09:20:21.874Z,21.07
2017-02-22T09:21:36.311Z,21.07
2017-02-22T09:22:50.714Z,21.13
2017-02-22T09:24:04.473Z,21.06
2017-02-22T09:25:18.222Z,21.16
2017-02-22T09:26:32.640Z,21.07
2017-02-22T09:27:46.443Z,21.16
2017-02-22T09:29:00.849Z,21.12
2017-02-22T09:30:14.606Z,21.17
2017-02-22T09:31:28.993Z,21.19
2017-02-22T09:32:43.376Z,21.38
2017-02-22T09:33:57.103Z,21.38
2017-02-22T09:35:10.828Z,21.34
2017-02-22T09:36:24.633Z,21.42
2017-02-22T09:37:39.090Z,21.32
2017-02-22T09:38:53.537Z,21.4
2017-02-22T09:40:07.955Z,21.34
2017-02-22T09:41:22.349Z,21.42
2017-02-22T09:42:36.762Z,21.34
2017-02-22T09:43:50.504Z,21.44
2017-02-22T09:45:03.641Z,21.56
2017-02-22T09:46:16.745Z,21.62
2017-02-22T09:47:31.130Z,21.5
2017-02-22T09:48:45.508Z,21.56
2017-02-22T09:49:59.902Z,21.58
2017-02-22T09:51:13.015Z,21.65
2017-02-22T09:52:26.773Z,21.71
2017-02-22T09:53:40.539Z,21.8
2017-02-22T09:54:54.337Z,21.74
2017-02-22T09:56:08.741Z,21.88
2017-02-22T09:57:22.465Z,21.96
2017-02-22T09:58:36.856Z,22.03
2017-02-22T09:59:51.278Z,22.2
2017-02-22T10:01:05.047Z,22.21
2017-02-22T10:02:18.844Z,22.43
2017-02-22T10:03:33.273Z,22.55
2017-02-22T10:04:47.666Z,22.54
2017-02-22T10:06:01.417Z,22.7
2017-02-22T10:07:15.803Z,22.72
2017-02-22T10:08:30.230Z,22.77
2017-02-22T10:09:44.634Z,22.94
2017-02-22T10:10:58.407Z,23.01
2017-02-22T10:12:12.845Z,22.95
2017-02-22T10:13:27.231Z,23.07
2017-02-22T10:14:41.625Z,23.1
2017-02-22T10:15:56.049Z,23.13
2017-02-22T10:17:10.454Z,23.16
2017-02-22T10:18:24.846Z,23.31
2017-02-22T10:19:39.233Z,23.33
2017-02-22T10:20:52.329Z,23.54
2017-02-22T10:22:06.090Z,23.79
2017-02-22T10:23:19.230Z,24.02
2017-02-22T10:24:33.620Z,24.27
2017-02-22T10:25:48.060Z,24.24
2017-02-22T10:27:01.818Z,23.98
2017-02-22T10:28:16.277Z,24.08
2017-02-22T10:29:30.673Z,24.1
2017-02-22T10:30:45.083Z,24.16
2017-02-22T10:31:58.818Z,24.39
2017-02-22T10:33:13.209Z,24.42
2017-02-22T10:34:26.988Z,24.37
2017-02-22T10:35:41.394Z,24.6
2017-02-22T10:36:55.823Z,24.95
2017-02-22T10:38:10.235Z,25.05
2017-02-22T10:39:23.415Z,25.13
2017-02-22T10:40:37.803Z,25.25
2017-02-22T10:41:52.202Z,25.18
2017-02-22T10:43:06.600Z,24.96
2017-02-22T10:44:21.038Z,24.87
2017-02-22T10:45:34.803Z,24.88
2017-02-22T10:46:49.246Z,24.93
2017-02-22T10:48:03.683Z,24.91
2017-02-22T10:49:17.479Z,24.95
2017-02-22T10:50:31.869Z,25.02
2017-02-22T10:51:45.639Z,25.23
2017-02-22T10:53:00.022Z,25.18
2017-02-22T10:54:13.771Z,25.2
2017-02-22T10:55:27.515Z,25.14
2017-02-22T10:56:41.901Z,25.05
2017-02-22T10:57:56.302Z,24.91
2017-02-22T10:59:10.081Z,24.91
2017-02-22T11:00:24.523Z,24.81
2017-02-22T11:01:38.317Z,24.62
2017-02-22T11:02:51.449Z,24.35
2017-02-22T11:04:05.832Z,24.13
2017-02-22T11:05:20.238Z,24.12
2017-02-22T11:06:34.681Z,24.24
2017-02-22T11:07:49.082Z,24.34
2017-02-22T11:09:03.531Z,24.45
2017-02-22T11:10:17.953Z,24.55
2017-02-22T11:11:31.093Z,24.77
2017-02-22T11:12:45.538Z,24.87
2017-02-22T11:13:59.964Z,25
2017-02-22T11:15:14.407Z,25.17
2017-02-22T11:16:28.170Z,25.39
2017-02-22T11:17:42.624Z,25.32
2017-02-22T11:18:57.040Z,25.43
2017-02-22T11:20:11.491Z,25.36
2017-02-22T11:21:25.903Z,25
2017-02-22T11:22:40.290Z,24.98
2017-02-22T11:23:54.678Z,25
2017-02-22T11:25:09.125Z,24.99
2017-02-22T11:26:22.895Z,25.2
2017-02-22T11:27:37.359Z,25.32
2017-02-22T11:28:51.779Z,25.39
2017-02-22T11:30:06.207Z,25.58
2017-02-22T11:31:20.635Z,26.2
2017-02-22T11:32:35.031Z,26.67
2017-02-22T11:33:49.464Z,26.82
2017-02-22T11:35:03.866Z,27.09
2017-02-22T11:36:18.301Z,27.67
2017-02-22T11:37:32.748Z,27.47
2017-02-22T11:38:47.155Z,27.57
2017-02-22T11:40:01.571Z,27.54
2017-02-22T11:41:15.969Z,27.74
2017-02-22T11:42:29.788Z,27.6
2017-02-22T11:43:44.306Z,27.66
2017-02-22T11:44:58.083Z,27.47
2017-02-22T11:46:12.547Z,27.22
2017-02-22T11:47:26.943Z,26.91
2017-02-22T11:48:41.362Z,26.67
2017-02-22T11:49:53.828Z,26.4
2017-02-22T11:51:08.220Z,26.57
2017-02-22T11:52:22.610Z,26.73
2017-02-22T11:53:36.353Z,26.72
2017-02-22T11:54:50.802Z,26.72
2017-02-22T11:56:04.556Z,27.02
2017-02-22T11:57:18.304Z,27.1
2017-02-22T11:58:32.734Z,26.75
2017-02-22T11:59:47.160Z,26.8
2017-02-22T12:01:00.894Z,26.65
2017-02-22T12:02:14.711Z,26.47
2017-02-22T12:03:27.880Z,26.62
2017-02-22T12:04:42.293Z,26.6
2017-02-22T12:05:56.046Z,26.57
2017-02-22T12:07:09.837Z,26.66
2017-02-22T12:08:24.275Z,26.92
2017-02-22T12:09:37.427Z,27.14
2017-02-22T12:10:51.864Z,27.41
2017-02-22T12:12:06.278Z,27.57
2017-02-22T12:13:20.072Z,27.46
2017-02-22T12:14:34.444Z,27.31
2017-02-22T12:15:48.231Z,27.21
2017-02-22T12:17:02.004Z,27.31
2017-02-22T12:18:15.787Z,27.78
2017-02-22T12:19:29.538Z,28.56
2017-02-22T12:20:44.034Z,28.98
2017-02-22T12:21:58.433Z,28.92
2017-02-22T12:23:12.224Z,28.71
2017-02-22T12:24:26.014Z,28.74
2017-02-22T12:25:40.436Z,28.62
2017-02-22T12:26:54.899Z,28.27
2017-02-22T12:28:09.296Z,27.96
2017-02-22T12:29:21.776Z,28.19
2017-02-22T12:30:36.172Z,28.19
2017-02-22T12:31:50.013Z,28.29
2017-02-22T12:33:04.433Z,28.15
2017-02-22T12:34:18.861Z,27.92
2017-02-22T12:35:33.320Z,27.87
2017-02-22T12:36:47.103Z,28.03
2017-02-22T12:38:00.879Z,28.41
2017-02-22T12:39:14.690Z,28.73
2017-02-22T12:40:29.108Z,28.93
2017-02-22T12:41:43.505Z,28.89
2017-02-22T12:42:57.283Z,28.7
2017-02-22T12:44:11.689Z,28.74
2017-02-22T12:45:26.164Z,28.81
2017-02-22T12:46:40.590Z,28.86
2017-02-22T12:47:54.961Z,29.08
2017-02-22T12:49:08.714Z,29.14
2017-02-22T12:50:22.481Z,28.68
2017-02-22T12:51:36.279Z,28.07
2017-02-22T12:52:50.668Z,27.7
2017-02-22T12:54:04.437Z,27.43
2017-02-22T12:55:18.867Z,27.24
2017-02-22T12:56:33.344Z,27.63
2017-02-22T12:57:47.131Z,27.84
2017-02-22T12:59:00.896Z,28.09
2017-02-22T13:00:14.636Z,28.33
2017-02-22T13:01:34.741Z,28.96
2017-02-22T13:02:47.921Z,29.18
2017-02-22T13:04:01.821Z,29.37
2017-02-22T13:05:16.292Z,28.92
2017-02-22T13:06:30.683Z,28.98
2017-02-22T13:07:45.101Z,29.08
2017-02-22T13:08:59.550Z,28.64
2017-02-22T13:10:14.001Z,27.5
2017-02-22T13:11:27.934Z,27.09
2017-02-22T13:12:41.745Z,27.27
2017-02-22T13:13:56.203Z,27.18
2017-02-22T13:15:10.627Z,27.36
2017-02-22T13:16:25.026Z,27.46
2017-02-22T13:17:38.762Z,27.55
2017-02-22T13:18:53.196Z,27.67
2017-02-22T13:20:26.857Z,27.66
2017-02-22T13:21:40.671Z,27.47
2017-02-22T13:22:54.460Z,27.81
2017-02-22T13:24:07.578Z,27.87
2017-02-22T13:25:21.349Z,27.49
2017-02-22T13:26:35.170Z,27.24
2017-02-22T13:27:49.577Z,27.24
2017-02-22T13:29:02.718Z,27.25
2017-02-22T13:30:17.140Z,27.03
2017-02-22T13:31:31.543Z,27.12
2017-02-22T13:32:45.295Z,27.25
2017-02-22T13:33:59.700Z,27.24
2017-02-22T13:35:14.119Z,27.44
2017-02-22T13:36:28.556Z,27.51
2017-02-22T13:37:42.363Z,27.74
2017-02-22T13:38:56.801Z,27.9
2017-02-22T13:40:10.575Z,27.99
2017-02-22T13:41:24.365Z,28.37
2017-02-22T13:42:38.795Z,28.86
2017-02-22T13:43:53.192Z,28.74
2017-02-22T13:45:07.632Z,28.64
2017-02-22T13:46:21.437Z,28.67
2017-02-22T13:47:35.245Z,28.76
2017-02-22T13:48:49.673Z,28.71
2017-02-22T13:50:03.475Z,28.62
2017-02-22T13:51:17.221Z,28.7
2017-02-22T13:52:31.660Z,28.68
2017-02-22T13:53:46.108Z,28.85
2017-02-22T13:54:59.883Z,29.26
2017-02-22T13:56:13.675Z,29.68
2017-02-22T13:57:28.112Z,29.85
2017-02-22T13:58:42.511Z,29.87
2017-02-22T13:59:56.922Z,29.65
2017-02-22T14:01:10.762Z,29.05
2017-02-22T14:02:25.225Z,28.73
2017-02-22T14:03:39.648Z,28.66
2017-02-22T14:04:53.460Z,28.58
2017-02-22T14:06:07.829Z,28.37
2017-02-22T14:07:21.657Z,28.39
2017-02-22T14:08:36.110Z,28.66
2017-02-22T14:09:50.518Z,28.83
2017-02-22T14:11:04.903Z,28.9
2017-02-22T14:12:18.014Z,28.68
2017-02-22T14:13:32.457Z,28.9
2017-02-22T14:14:46.898Z,29.28
2017-02-22T14:16:01.306Z,29.67
2017-02-22T14:17:14.444Z,29.83
2017-02-22T14:18:28.875Z,30.02
2017-02-22T14:19:43.277Z,30.32
2017-02-22T14:20:57.660Z,29.85
2017-02-22T14:22:12.109Z,29.37
2017-02-22T14:23:25.228Z,29.68
2017-02-22T14:24:38.988Z,30.02
2017-02-22T14:25:53.407Z,30.49
2017-02-22T14:27:07.206Z,30.26
2017-02-22T14:28:21.635Z,30.15
2017-02-22T14:29:36.019Z,30.17
2017-02-22T14:30:49.755Z,30.42
2017-02-22T14:32:04.196Z,30.6
2017-02-22T14:33:18.054Z,30.64
2017-02-22T14:34:32.602Z,30.72
2017-02-22T14:35:46.998Z,30.99
2017-02-22T14:37:00.766Z,31.56
2017-02-22T14:38:14.655Z,31.78
2017-02-22T14:39:29.055Z,32.11
2017-02-22T14:40:43.493Z,31.85
2017-02-22T14:41:57.906Z,32.19
2017-02-22T14:43:11.670Z,32.11
2017-02-22T14:44:26.101Z,32.22
2017-02-22T14:45:39.253Z,32.01
2017-02-22T14:46:53.696Z,31.69
2017-02-22T14:48:07.513Z,31.43
2017-02-22T14:49:21.947Z,31.61
2017-02-22T14:50:36.441Z,31.41
2017-02-22T14:51:50.900Z,31.23
2017-02-22T14:53:04.683Z,30.75
2017-02-22T14:54:19.096Z,30.69
2017-02-22T14:55:33.479Z,30.67
2017-02-22T14:56:47.995Z,30.73
2017-02-22T14:58:02.421Z,31.01
2017-02-22T14:59:16.210Z,31.09
2017-02-22T15:00:30.652Z,31.48
2017-02-22T15:01:45.222Z,31.62
2017-02-22T15:02:59.926Z,31.7
2017-02-22T15:04:14.378Z,31.73
2017-02-22T15:05:28.767Z,32.04
2017-02-22T15:06:43.187Z,32.45
2017-02-22T15:07:57.619Z,33.03
2017-02-22T15:09:12.022Z,33.81
2017-02-22T15:10:26.436Z,34.12
2017-02-22T15:11:40.916Z,33.31
2017-02-22T15:13:08.139Z,32.28
2017-02-22T15:14:22.551Z,31.96
2017-02-22T15:15:36.972Z,31.44
2017-02-22T15:16:51.419Z,31.34
2017-02-22T15:18:05.845Z,31.56
2017-02-22T15:19:19.008Z,32.14
2017-02-22T15:20:32.821Z,32.32
2017-02-22T15:21:47.206Z,32.7
2017-02-22T15:23:01.637Z,32.88
2017-02-22T15:24:16.441Z,33.38
2017-02-22T15:25:30.870Z,34.02
2017-02-22T15:26:45.300Z,34.19
2017-02-22T15:27:59.136Z,33.63
2017-02-22T15:29:13.591Z,32.5
2017-02-22T15:30:28.087Z,32.29
2017-02-22T15:31:42.487Z,32.43
2017-02-22T15:32:56.936Z,32.5
2017-02-22T15:34:11.351Z,32.55
2017-02-22T15:35:25.726Z,33.11
2017-02-22T15:36:40.161Z,33.88
2017-02-22T15:37:54.578Z,34.42
2017-02-22T15:39:08.355Z,34.85
2017-02-22T15:40:22.739Z,35.25
2017-02-22T15:41:37.177Z,35.36
2017-02-22T15:42:51.593Z,35.56
2017-02-22T15:44:06.004Z,35.33
2017-02-22T15:45:19.773Z,35.66
2017-02-22T15:46:34.240Z,35.78
2017-02-22T15:47:48.663Z,34.92
2017-02-22T15:49:03.099Z,34.15
2017-02-22T15:50:16.209Z,33.81
2017-02-22T15:51:30.004Z,33.87
2017-02-22T15:52:43.783Z,34.02
2017-02-22T15:53:57.579Z,34.35
2017-02-22T15:55:12.000Z,34.85
2017-02-22T15:56:26.412Z,34.27
2017-02-22T15:57:40.890Z,34.06
2017-02-22T15:58:54.670Z,33.81